createdAt,value
2022-08-26T00:06:15.891Z,24.7
2022-08-26T00:10:10.157Z,71.6
2022-08-26T00:15:06.521Z,28.3
2022-08-26T00:20:21.959Z,21.2
2022-08-26T00:25:33.074Z,29.2
2022-08-26T00:30:39.448Z,20.6
2022-08-26T00:36:19.995Z,22.7
2022-08-26T00:40:42.202Z,27.2
2022-08-26T00:46:32.681Z,23.8
2022-08-26T00:51:40.312Z,23.7
2022-08-26T00:56:50.718Z,24.8
2022-08-26T01:01:53.268Z,23.4
2022-08-26T01:06:49.470Z,35.7
2022-08-26T01:11:55.854Z,23.8
2022-08-26T01:17:12.244Z,26.6
2022-08-26T01:22:18.809Z,22.2
2022-08-26T01:27:15.285Z,23.0
2022-08-26T01:32:35.735Z,23.7
2022-08-26T01:37:39.002Z,30.0
2022-08-26T01:42:44.491Z,25.0
2022-08-26T01:47:57.173Z,27.4
2022-08-26T01:52:57.262Z,33.7
2022-08-26T01:58:03.816Z,25.3
2022-08-26T02:03:10.412Z,33.4
2022-08-26T02:08:16.891Z,31.7
2022-08-26T02:13:27.278Z,38.4
2022-08-26T02:18:29.649Z,33.8
2022-08-26T02:23:36.580Z,39.9
2022-08-26T02:28:43.156Z,44.1
2022-08-26T02:33:49.540Z,37.7
2022-08-26T02:38:46.239Z,43.2
2022-08-26T02:44:02.322Z,55.8
2022-08-26T02:49:08.771Z,52.9
2022-08-26T02:54:15.131Z,45.5
2022-08-26T02:59:25.547Z,46.1
2022-08-26T03:04:33.303Z,48.5
2022-08-26T03:09:34.316Z,53.2
2022-08-26T03:15:00.764Z,61.5
2022-08-26T03:19:49.044Z,66.4
2022-08-26T03:24:53.596Z,52.8
2022-08-26T03:30:00.002Z,54.8
2022-08-26T03:35:06.465Z,58.3
2022-08-26T03:40:12.930Z,58.9
2022-08-26T03:45:19.247Z,54.7
2022-08-26T03:50:25.637Z,60.9
2022-08-26T03:55:23.624Z,62.3
2022-08-26T04:00:38.425Z,59.6
2022-08-26T04:05:44.980Z,56.3
2022-08-26T04:10:41.473Z,59.5
2022-08-26T04:15:58.071Z,73.8
2022-08-26T04:22:06.494Z,73.7
2022-08-26T04:26:00.750Z,61.5
2022-08-26T04:31:07.161Z,66.0
2022-08-26T04:36:26.534Z,57.0
2022-08-26T04:41:31.524Z,66.6
2022-08-26T04:46:26.356Z,62.7
2022-08-26T04:51:43.935Z,56.0
2022-08-26T04:56:39.325Z,61.1
2022-08-26T05:01:45.944Z,50.8
2022-08-26T05:07:02.981Z,50.6
2022-08-26T05:11:58.699Z,56.8
2022-08-26T05:17:15.238Z,57.5
2022-08-26T05:22:21.464Z,66.0
2022-08-26T05:27:47.868Z,58.6
2022-08-26T05:33:18.290Z,48.8
2022-08-26T05:37:40.591Z,56.6
2022-08-26T05:42:36.962Z,45.8
2022-08-26T05:47:43.386Z,48.4
2022-08-26T05:52:59.795Z,39.8
2022-08-26T05:57:59.167Z,46.1
2022-08-26T06:03:05.723Z,39.4
2022-08-26T06:08:20.951Z,48.7
2022-08-26T06:13:30.225Z,44.8
2022-08-26T06:18:58.999Z,46.2
2022-08-26T06:23:32.368Z,44.4
2022-08-26T06:29:24.690Z,44.7
2022-08-26T06:35:11.952Z,54.3
2022-08-26T06:39:03.047Z,42.8
2022-08-26T06:44:32.521Z,39.3
2022-08-26T06:50:29.081Z,43.9
2022-08-26T06:54:23.330Z,43.7
2022-08-26T06:59:53.768Z,40.1
2022-08-26T07:05:02.237Z,42.2
2022-08-26T07:09:45.684Z,37.0
2022-08-26T07:15:12.151Z,54.9
2022-08-26T07:19:58.449Z,34.7
2022-08-26T07:25:04.823Z,47.3
2022-08-26T07:30:11.203Z,44.3
2022-08-26T07:35:17.621Z,46.0
2022-08-26T07:40:28.060Z,40.7
2022-08-26T07:46:06.085Z,53.2
2022-08-26T07:51:13.449Z,43.3
2022-08-26T07:56:19.837Z,38.7
2022-08-26T08:01:16.217Z,50.7
2022-08-26T08:07:07.491Z,49.2
2022-08-26T08:12:14.413Z,44.0
2022-08-26T08:17:20.649Z,44.9
2022-08-26T08:22:27.290Z,45.4
2022-08-26T08:27:57.452Z,40.3
2022-08-26T08:37:46.157Z,46.0
2022-08-26T08:47:58.900Z,37.1
2022-08-26T08:52:55.423Z,43.8
2022-08-26T08:58:12.163Z,34.5
2022-08-26T09:03:08.385Z,33.7
2022-08-26T09:08:14.757Z,30.4
2022-08-26T09:13:31.718Z,34.7
2022-08-26T09:18:37.582Z,38.0
2022-08-26T09:23:43.974Z,40.5
2022-08-26T09:28:40.426Z,30.3
2022-08-26T09:33:56.824Z,44.6
2022-08-26T09:39:03.197Z,25.5
2022-08-26T09:44:14.718Z,26.5
2022-08-26T09:49:15.959Z,42.7
2022-08-26T09:54:24.523Z,22.6
2022-08-26T09:59:30.902Z,29.0
2022-08-26T10:04:27.303Z,25.6
2022-08-26T10:10:45.069Z,30.3
2022-08-26T10:15:29.759Z,42.2
2022-08-26T10:20:37.153Z,34.0
2022-08-26T10:25:44.595Z,31.2
2022-08-26T10:30:42.826Z,27.0
2022-08-26T10:35:57.565Z,27.4
2022-08-26T10:41:23.995Z,28.7
2022-08-26T10:46:30.571Z,22.0
2022-08-26T11:08:33.127Z,22.4
2022-08-26T11:12:31.611Z,28.4
2022-08-26T11:17:39.602Z,21.5
2022-08-26T11:22:47.861Z,22.1
2022-08-26T11:27:42.362Z,23.1
2022-08-26T11:33:22.875Z,25.4
2022-08-26T11:38:05.459Z,24.2
2022-08-26T11:43:01.771Z,23.0
2022-08-26T11:49:30.287Z,16.2
2022-08-26T11:53:24.557Z,15.2
2022-08-26T11:58:55.079Z,15.3
2022-08-26T12:03:37.691Z,18.1
2022-08-26T12:08:43.978Z,20.3
2022-08-26T12:13:50.406Z,27.2
2022-08-26T12:18:56.713Z,21.3
2022-08-26T12:24:03.251Z,20.4
2022-08-26T12:29:20.219Z,20.4
2022-08-26T12:34:05.960Z,13.8
2022-08-26T12:39:22.458Z,14.5
2022-08-26T12:44:28.850Z,21.5
2022-08-26T12:49:55.345Z,17.0
2022-08-26T12:55:01.748Z,16.9
2022-08-26T12:59:48.276Z,29.0
2022-08-26T13:04:58.691Z,18.8
2022-08-26T13:10:01.091Z,20.4
2022-08-26T13:15:07.540Z,16.0
2022-08-26T13:20:13.901Z,17.6
2022-08-26T13:26:31.685Z,18.1
2022-08-26T13:30:46.952Z,20.5
2022-08-26T13:35:57.411Z,22.7
2022-08-26T13:40:39.792Z,21.5
2022-08-26T13:45:49.356Z,15.9
2022-08-26T13:50:55.738Z,14.8
2022-08-26T13:56:02.110Z,17.4
2022-08-26T14:01:08.556Z,20.4
2022-08-26T14:06:38.953Z,14.9
2022-08-26T14:11:21.255Z,14.8
2022-08-26T14:16:27.686Z,23.6
2022-08-26T14:21:34.100Z,20.9
2022-08-26T14:26:40.486Z,18.8
2022-08-26T14:31:46.946Z,13.6
2022-08-26T14:36:53.423Z,16.2
2022-08-26T14:42:19.890Z,19.0
2022-08-26T14:47:06.295Z,22.2
2022-08-26T14:52:12.644Z,25.5
2022-08-26T14:58:19.188Z,24.8
2022-08-26T15:02:32.947Z,28.9
2022-08-26T15:07:55.870Z,32.6
2022-08-26T15:12:38.260Z,17.9
2022-08-26T15:18:09.044Z,18.2
2022-08-26T15:22:51.191Z,28.0
2022-08-26T15:27:57.591Z,24.7
2022-08-26T15:33:03.961Z,16.4
2022-08-26T15:38:30.542Z,17.1
2022-08-26T15:43:40.985Z,13.9
2022-08-26T15:48:23.339Z,15.4
2022-08-26T15:53:29.750Z,12.8
2022-08-26T15:58:36.304Z,13.6
2022-08-26T16:03:42.662Z,16.9
2022-08-26T16:08:49.064Z,19.5
2022-08-26T16:13:55.459Z,16.1
2022-08-26T16:19:06.819Z,19.4
2022-08-26T16:24:08.220Z,18.7
2022-08-26T16:29:14.616Z,14.6
2022-08-26T16:34:21.003Z,17.1
2022-08-26T16:39:17.400Z,17.6
2022-08-26T16:44:33.882Z,14.2
2022-08-26T16:49:40.383Z,18.8
2022-08-26T16:54:36.841Z,12.9
2022-08-26T16:59:53.256Z,17.3
2022-08-26T17:05:33.759Z,12.5
2022-08-26T17:10:41.097Z,12.8
2022-08-26T17:15:47.490Z,19.3
2022-08-26T17:20:53.852Z,15.1
2022-08-26T17:25:50.359Z,15.3
2022-08-26T17:31:06.942Z,20.0
2022-08-26T17:36:03.229Z,13.7
2022-08-26T17:41:23.676Z,16.8
2022-08-26T17:46:16.106Z,22.1
2022-08-26T17:51:32.486Z,14.6
2022-08-26T17:56:42.868Z,13.8
2022-08-26T18:01:35.330Z,19.7
2022-08-26T18:06:51.732Z,15.0
2022-08-26T18:12:18.894Z,24.8
2022-08-26T18:17:29.293Z,14.7
2022-08-26T18:22:11.621Z,20.4
2022-08-26T18:27:07.984Z,15.3
2022-08-26T18:32:24.509Z,21.2
2022-08-26T18:37:31.736Z,19.0
2022-08-26T18:42:37.482Z,26.9
2022-08-26T18:48:07.898Z,13.4
2022-08-26T18:52:54.247Z,29.3
2022-08-26T18:57:56.626Z,16.1
2022-08-26T19:03:03.120Z,13.5
2022-08-26T19:08:09.570Z,16.4
2022-08-26T19:14:22.928Z,14.7
2022-08-26T19:19:06.249Z,14.5
2022-08-26T19:24:12.649Z,20.5
2022-08-26T19:29:09.080Z,14.1
2022-08-26T19:34:25.529Z,28.8
2022-08-26T19:39:31.911Z,14.3
2022-08-26T19:44:38.310Z,13.1
2022-08-26T19:49:44.761Z,19.4
2022-08-26T19:55:15.295Z,17.0
2022-08-26T19:59:57.609Z,14.0
2022-08-26T20:05:24.043Z,17.3
2022-08-26T20:10:00.399Z,13.6
2022-08-26T20:15:05.776Z,15.7
2022-08-26T20:20:32.853Z,13.5
2022-08-26T20:25:29.684Z,15.9
2022-08-26T20:30:36.075Z,14.0
2022-08-26T20:35:42.459Z,27.6
2022-08-26T20:40:48.842Z,17.0
2022-08-26T20:45:55.334Z,13.0
2022-08-26T20:51:42.736Z,16.7
2022-08-26T20:56:50.116Z,18.1
2022-08-26T21:01:56.500Z,13.4
2022-08-26T21:07:26.921Z,13.6
2022-08-26T21:11:59.409Z,15.2
2022-08-26T21:17:19.831Z,13.9
2022-08-26T21:22:22.192Z,12.7
2022-08-26T21:27:26.123Z,13.5
2022-08-26T21:32:58.204Z,16.4
2022-08-26T21:37:41.549Z,15.2
2022-08-26T21:43:08.072Z,15.8
2022-08-26T21:47:54.529Z,18.1
2022-08-26T21:53:00.909Z,12.9
2022-08-26T21:58:07.378Z,14.1
2022-08-26T22:03:13.687Z,18.6
2022-08-26T22:08:20.056Z,24.3
2022-08-26T22:13:26.426Z,16.3
2022-08-26T22:18:32.810Z,28.7
2022-08-26T22:23:39.316Z,19.3
2022-08-26T22:28:45.820Z,15.2
2022-08-26T22:34:12.312Z,20.0
2022-08-26T22:39:02.662Z,14.5
2022-08-26T22:44:05.043Z,13.9
2022-08-26T22:49:11.410Z,23.8
2022-08-26T22:54:17.773Z,22.4
2022-08-26T22:59:14.122Z,15.6
2022-08-26T23:04:20.543Z,12.6
2022-08-26T23:09:37.049Z,25.4
2022-08-26T23:15:07.517Z,15.2
2022-08-26T23:31:56.265Z,14.7
2022-08-26T23:37:06.257Z,13.0
2022-08-26T23:42:09.990Z,14.2
2022-08-26T23:47:19.971Z,17.9
2022-08-26T23:52:40.369Z,14.5
2022-08-26T23:57:52.782Z,19.8
